sensor_id;sensor_type;location;lat;lon;timestamp;pressure;altitude;pressure_sealevel;temperature;humidity
12722;BME280;6425;50.316;8.114;2023-03-16T00:00:00;994;;;-0.7;82.6
12722;BME280;6425;50.316;8.114;2023-03-16T00:03:00;994;;;-0.8;82.7
12722;BME280;6425;50.316;8.114;2023-03-16T00:06:00;994;;;-0.7;82.7
12722;BME280;6425;50.316;8.114;2023-03-16T00:09:00;994;;;-0.6;81.9
12722;BME280;6425;50.316;8.114;2023-03-16T00:12:00;994;;;-0.7;81.9
12722;BME280;6425;50.316;8.114;2023-03-16T00:15:00;994;;;-0.9;82.1
12722;BME280;6425;50.316;8.114;2023-03-16T00:18:00;994;;;-1;82.6
12722;BME280;6425;50.316;8.114;2023-03-16T00:21:00;994;;;-0.9;82.8
12722;BME280;6425;50.316;8.114;2023-03-16T00:24:00;994;;;-1;82.9
12722;BME280;6425;50.316;8.114;2023-03-16T00:27:00;994;;;-1;83.2
12722;BME280;6425;50.316;8.114;2023-03-16T00:30:00;994;;;-1.1;83.5
12722;BME280;6425;50.316;8.114;2023-03-16T00:33:00;994;;;-1;83.7
12722;BME280;6425;50.316;8.114;2023-03-16T00:36:00;994;;;-0.8;83.1
12722;BME280;6425;50.316;8.114;2023-03-16T00:39:00;994;;;-0.6;81.5
12722;BME280;6425;50.316;8.114;2023-03-16T00:42:00;994;;;-0.7;81.8
12722;BME280;6425;50.316;8.114;2023-03-16T00:45:00;994;;;-0.6;81
12722;BME280;6425;50.316;8.114;2023-03-16T00:48:00;994;;;-0.6;80.7
12722;BME280;6425;50.316;8.114;2023-03-16T00:51:00;994;;;-0.4;79.9
12722;BME280;6425;50.316;8.114;2023-03-16T00:54:00;994;;;-0.3;79.3
12722;BME280;6425;50.316;8.114;2023-03-16T00:57:00;994;;;-0.2;79.2
12722;BME280;6425;50.316;8.114;2023-03-16T01:00:00;994;;;-0.2;78.6
12722;BME280;6425;50.316;8.114;2023-03-16T01:03:00;994;;;-0.2;78.3
12722;BME280;6425;50.316;8.114;2023-03-16T01:06:02;994;;;-0.5;78.5
12722;BME280;6425;50.316;8.114;2023-03-16T01:09:00;994;;;-0.7;80.1
12722;BME280;6425;50.316;8.114;2023-03-16T01:12:00;994;;;-0.8;80.7
12722;BME280;6425;50.316;8.114;2023-03-16T01:15:00;994;;;-0.6;80.7
12722;BME280;6425;50.316;8.114;2023-03-16T01:18:00;994;;;-0.9;80.5
12722;BME280;6425;50.316;8.114;2023-03-16T01:21:00;994;;;-1.2;82.3
12722;BME280;6425;50.316;8.114;2023-03-16T01:24:00;994;;;-1.3;83.3
12722;BME280;6425;50.316;8.114;2023-03-16T01:27:00;994;;;-1;83.1
12722;BME280;6425;50.316;8.114;2023-03-16T01:30:00;994;;;-0.8;82.7
12722;BME280;6425;50.316;8.114;2023-03-16T01:33:00;994;;;-0.6;82.3
12722;BME280;6425;50.316;8.114;2023-03-16T01:36:01;994;;;-0.5;80.6
12722;BME280;6425;50.316;8.114;2023-03-16T01:39:00;994;;;-0.3;79.1
12722;BME280;6425;50.316;8.114;2023-03-16T01:42:00;994;;;-0.6;79.7
12722;BME280;6425;50.316;8.114;2023-03-16T01:45:00;994;;;-0.6;80.4
12722;BME280;6425;50.316;8.114;2023-03-16T01:48:00;994;;;-0.9;80.8
12722;BME280;6425;50.316;8.114;2023-03-16T01:51:00;994;;;-1.1;82.2
12722;BME280;6425;50.316;8.114;2023-03-16T01:54:00;994;;;-0.9;82.8
12722;BME280;6425;50.316;8.114;2023-03-16T01:57:00;994;;;-0.5;81.8
12722;BME280;6425;50.316;8.114;2023-03-16T02:00:01;994;;;0;79.9
12722;BME280;6425;50.316;8.114;2023-03-16T02:03:01;994;;;0;78.2
12722;BME280;6425;50.316;8.114;2023-03-16T02:06:00;994;;;0;78.1
12722;BME280;6425;50.316;8.114;2023-03-16T02:09:00;994;;;-0.5;78.5
12722;BME280;6425;50.316;8.114;2023-03-16T02:12:00;994;;;-0.9;80.9
12722;BME280;6425;50.316;8.114;2023-03-16T02:15:00;994;;;-0.7;81.6
12722;BME280;6425;50.316;8.114;2023-03-16T02:18:00;994;;;-0.6;81.3
12722;BME280;6425;50.316;8.114;2023-03-16T02:21:02;994;;;-0.6;81.2
12722;BME280;6425;50.316;8.114;2023-03-16T02:24:00;994;;;-0.7;81.4
12722;BME280;6425;50.316;8.114;2023-03-16T02:27:00;994;;;-0.5;81.3
12722;BME280;6425;50.316;8.114;2023-03-16T02:30:01;994;;;-0.2;80.6
12722;BME280;6425;50.316;8.114;2023-03-16T02:33:00;993;;;0;79.5
12722;BME280;6425;50.316;8.114;2023-03-16T02:36:00;993;;;0.1;78.9
12722;BME280;6425;50.316;8.114;2023-03-16T02:39:00;993;;;0.1;78
12722;BME280;6425;50.316;8.114;2023-03-16T02:42:00;993;;;0.2;77.5
12722;BME280;6425;50.316;8.114;2023-03-16T02:45:00;993;;;-0.1;78.3
12722;BME280;6425;50.316;8.114;2023-03-16T02:48:00;993;;;-0.2;77.8
12722;BME280;6425;50.316;8.114;2023-03-16T02:51:00;993;;;-0.1;78.7
12722;BME280;6425;50.316;8.114;2023-03-16T02:54:00;993;;;0;78.4
12722;BME280;6425;50.316;8.114;2023-03-16T02:57:00;993;;;0.3;77.7
12722;BME280;6425;50.316;8.114;2023-03-16T03:00:00;993;;;0.4;77.2
12722;BME280;6425;50.316;8.114;2023-03-16T03:03:00;993;;;0.5;76.6
12722;BME280;6425;50.316;8.114;2023-03-16T03:06:00;993;;;0.3;76.7
12722;BME280;6425;50.316;8.114;2023-03-16T03:09:00;993;;;0.1;76.5
12722;BME280;6425;50.316;8.114;2023-03-16T03:12:00;993;;;0.2;76.7
12722;BME280;6425;50.316;8.114;2023-03-16T03:15:00;993;;;-0.2;77
12722;BME280;6425;50.316;8.114;2023-03-16T03:18:00;993;;;0;77.6
12722;BME280;6425;50.316;8.114;2023-03-16T03:21:00;993;;;-0.2;78.1
12722;BME280;6425;50.316;8.114;2023-03-16T03:24:00;993;;;0.1;78
12722;BME280;6425;50.316;8.114;2023-03-16T03:27:00;993;;;-0.4;77.9
12722;BME280;6425;50.316;8.114;2023-03-16T03:30:00;993;;;-1;79.8
12722;BME280;6425;50.316;8.114;2023-03-16T03:33:00;993;;;-0.8;81.2
12722;BME280;6425;50.316;8.114;2023-03-16T03:36:00;993;;;-0.6;80.3
12722;BME280;6425;50.316;8.114;2023-03-16T03:39:00;993;;;-0.6;79.7
12722;BME280;6425;50.316;8.114;2023-03-16T03:42:00;993;;;-0.7;79.7
12722;BME280;6425;50.316;8.114;2023-03-16T03:45:00;993;;;-0.6;79.2
12722;BME280;6425;50.316;8.114;2023-03-16T03:48:00;993;;;-1;80.2
12722;BME280;6425;50.316;8.114;2023-03-16T03:51:00;993;;;-1.1;81.5
12722;BME280;6425;50.316;8.114;2023-03-16T03:54:00;993;;;-1.1;82.1
12722;BME280;6425;50.316;8.114;2023-03-16T03:57:00;993;;;-1;82.1
12722;BME280;6425;50.316;8.114;2023-03-16T04:00:00;993;;;-1;81.3
12722;BME280;6425;50.316;8.114;2023-03-16T04:03:00;993;;;-1.3;82
12722;BME280;6425;50.316;8.114;2023-03-16T04:06:00;993;;;-0.9;81.7
12722;BME280;6425;50.316;8.114;2023-03-16T04:09:00;993;;;-1.2;81.2
12722;BME280;6425;50.316;8.114;2023-03-16T04:12:00;993;;;-1.5;82.3
12722;BME280;6425;50.316;8.114;2023-03-16T04:15:00;993;;;-1.5;83
12722;BME280;6425;50.316;8.114;2023-03-16T04:18:00;993;;;-1.6;83
12722;BME280;6425;50.316;8.114;2023-03-16T04:21:00;993;;;-1.5;83.4
12722;BME280;6425;50.316;8.114;2023-03-16T04:24:00;993;;;-1.5;83.5
12722;BME280;6425;50.316;8.114;2023-03-16T04:27:00;993;;;-1.5;83.5
12722;BME280;6425;50.316;8.114;2023-03-16T04:30:00;993;;;-1.3;83.2
12722;BME280;6425;50.316;8.114;2023-03-16T04:33:00;993;;;-2;83.8
12722;BME280;6425;50.316;8.114;2023-03-16T04:36:00;993;;;-1.5;84.5
12722;BME280;6425;50.316;8.114;2023-03-16T04:39:00;993;;;-1.2;83.3
12722;BME280;6425;50.316;8.114;2023-03-16T04:42:00;993;;;-0.8;81.6
12722;BME280;6425;50.316;8.114;2023-03-16T04:45:00;993;;;-0.6;80.3
12722;BME280;6425;50.316;8.114;2023-03-16T04:48:00;993;;;-0.6;79.4
12722;BME280;6425;50.316;8.114;2023-03-16T04:51:00;993;;;-0.7;79.4
12722;BME280;6425;50.316;8.114;2023-03-16T04:54:00;993;;;-0.8;79.8
12722;BME280;6425;50.316;8.114;2023-03-16T04:57:00;993;;;-0.8;80.5
12722;BME280;6425;50.316;8.114;2023-03-16T05:00:00;993;;;-0.9;80.7
12722;BME280;6425;50.316;8.114;2023-03-16T05:03:00;993;;;-0.8;81.1
12722;BME280;6425;50.316;8.114;2023-03-16T05:06:00;993;;;-1;81.5
12722;BME280;6425;50.316;8.114;2023-03-16T05:09:00;993;;;-0.8;81.6
12722;BME280;6425;50.316;8.114;2023-03-16T05:12:00;993;;;-0.6;81.1
12722;BME280;6425;50.316;8.114;2023-03-16T05:15:00;993;;;-0.7;81.4
12722;BME280;6425;50.316;8.114;2023-03-16T05:18:00;993;;;-0.8;81.8
12722;BME280;6425;50.316;8.114;2023-03-16T05:21:00;993;;;-0.9;82
12722;BME280;6425;50.316;8.114;2023-03-16T05:24:00;993;;;-0.7;82.1
12722;BME280;6425;50.316;8.114;2023-03-16T05:27:00;993;;;-0.6;81.8
12722;BME280;6425;50.316;8.114;2023-03-16T05:30:00;993;;;-0.6;81.5
12722;BME280;6425;50.316;8.114;2023-03-16T05:33:00;993;;;-0.8;82.1
12722;BME280;6425;50.316;8.114;2023-03-16T05:36:00;993;;;-0.7;82.6
12722;BME280;6425;50.316;8.114;2023-03-16T05:39:00;993;;;-0.8;83.2
12722;BME280;6425;50.316;8.114;2023-03-16T05:42:00;993;;;-0.5;83.8
12722;BME280;6425;50.316;8.114;2023-03-16T05:45:00;993;;;-0.2;83.6
12722;BME280;6425;50.316;8.114;2023-03-16T05:48:00;993;;;-0.1;82.7
12722;BME280;6425;50.316;8.114;2023-03-16T05:51:00;993;;;-0.9;82.3
12722;BME280;6425;50.316;8.114;2023-03-16T05:54:00;993;;;-0.7;83.9
12722;BME280;6425;50.316;8.114;2023-03-16T05:57:00;993;;;-0.7;83.3
12722;BME280;6425;50.316;8.114;2023-03-16T06:00:00;993;;;-0.3;84.2
12722;BME280;6425;50.316;8.114;2023-03-16T06:03:00;993;;;0.1;83.1
12722;BME280;6425;50.316;8.114;2023-03-16T06:06:00;993;;;0.3;82.4
12722;BME280;6425;50.316;8.114;2023-03-16T06:09:00;993;;;-0.7;82.1
12722;BME280;6425;50.316;8.114;2023-03-16T06:12:00;993;;;-0.8;84.2
12722;BME280;6425;50.316;8.114;2023-03-16T06:15:00;993;;;-0.2;84.5
12722;BME280;6425;50.316;8.114;2023-03-16T06:18:00;993;;;0.3;83.9
12722;BME280;6425;50.316;8.114;2023-03-16T06:21:00;993;;;0.7;81.9
12722;BME280;6425;50.316;8.114;2023-03-16T06:24:00;993;;;-0.3;82.4
12722;BME280;6425;50.316;8.114;2023-03-16T06:27:00;993;;;-0.7;83.9
12722;BME280;6425;50.316;8.114;2023-03-16T06:30:00;993;;;-0.8;85.2
12722;BME280;6425;50.316;8.114;2023-03-16T06:33:00;993;;;-0.8;87.1
12722;BME280;6425;50.316;8.114;2023-03-16T06:36:00;993;;;-0.9;87.5
12722;BME280;6425;50.316;8.114;2023-03-16T06:39:00;993;;;-0.6;88
12722;BME280;6425;50.316;8.114;2023-03-16T06:42:00;993;;;-1.1;88.2
12722;BME280;6425;50.316;8.114;2023-03-16T06:45:00;993;;;-0.7;88.5
12722;BME280;6425;50.316;8.114;2023-03-16T06:48:00;993;;;-1.1;89.7
12722;BME280;6425;50.316;8.114;2023-03-16T06:51:00;993;;;-1.4;90.4
12722;BME280;6425;50.316;8.114;2023-03-16T06:54:00;993;;;-1.7;92.4
12722;BME280;6425;50.316;8.114;2023-03-16T06:57:00;993;;;-1.7;93.9
12722;BME280;6425;50.316;8.114;2023-03-16T07:00:00;993;;;-1.7;94.7
12722;BME280;6425;50.316;8.114;2023-03-16T07:03:00;993;;;-2;95
12722;BME280;6425;50.316;8.114;2023-03-16T07:06:00;993;;;-2.3;96.3
12722;BME280;6425;50.316;8.114;2023-03-16T07:09:00;993;;;-2.3;97.6
12722;BME280;6425;50.316;8.114;2023-03-16T07:12:00;993;;;-2.3;98.2
12722;BME280;6425;50.316;8.114;2023-03-16T07:15:00;993;;;-2.2;98.3
12722;BME280;6425;50.316;8.114;2023-03-16T07:18:00;993;;;-2;98.5
12722;BME280;6425;50.316;8.114;2023-03-16T07:21:00;993;;;-1.9;98.2
12722;BME280;6425;50.316;8.114;2023-03-16T07:24:00;993;;;-1.7;97.4
12722;BME280;6425;50.316;8.114;2023-03-16T07:27:00;993;;;-1.3;97.4
12722;BME280;6425;50.316;8.114;2023-03-16T07:30:00;993;;;-1.4;96.7
12722;BME280;6425;50.316;8.114;2023-03-16T07:33:00;993;;;-1.7;96.3
12722;BME280;6425;50.316;8.114;2023-03-16T07:36:00;993;;;-1.7;96.6
12722;BME280;6425;50.316;8.114;2023-03-16T07:39:00;993;;;-1.4;96.5
12722;BME280;6425;50.316;8.114;2023-03-16T07:42:00;993;;;-1.4;96.4
12722;BME280;6425;50.316;8.114;2023-03-16T07:45:00;993;;;-0.6;96.7
12722;BME280;6425;50.316;8.114;2023-03-16T07:48:00;993;;;-0.3;94.4
12722;BME280;6425;50.316;8.114;2023-03-16T07:51:00;993;;;-0.7;93.4
12722;BME280;6425;50.316;8.114;2023-03-16T07:54:00;993;;;-0.4;92.8
12722;BME280;6425;50.316;8.114;2023-03-16T07:57:00;993;;;-0.1;91.7
12722;BME280;6425;50.316;8.114;2023-03-16T08:00:00;993;;;-0.3;91.1
12722;BME280;6425;50.316;8.114;2023-03-16T08:03:00;993;;;-0.6;91.8
12722;BME280;6425;50.316;8.114;2023-03-16T08:06:00;993;;;-0.5;92.7
12722;BME280;6425;50.316;8.114;2023-03-16T08:09:00;993;;;-0.1;93.2
12722;BME280;6425;50.316;8.114;2023-03-16T08:12:00;993;;;0.6;90.9
12722;BME280;6425;50.316;8.114;2023-03-16T08:15:00;993;;;1;89
12722;BME280;6425;50.316;8.114;2023-03-16T08:18:00;993;;;0.8;88.3
12722;BME280;6425;50.316;8.114;2023-03-16T08:21:00;993;;;1.5;87.7
12722;BME280;6425;50.316;8.114;2023-03-16T08:24:00;993;;;1.6;85.1
12722;BME280;6425;50.316;8.114;2023-03-16T08:27:00;993;;;0.8;87
12722;BME280;6425;50.316;8.114;2023-03-16T08:30:00;993;;;1.2;88.2
12722;BME280;6425;50.316;8.114;2023-03-16T08:33:00;993;;;1.8;86.2
12722;BME280;6425;50.316;8.114;2023-03-16T08:36:00;993;;;1.5;86.2
12722;BME280;6425;50.316;8.114;2023-03-16T08:39:00;992;;;2.8;83.3
12722;BME280;6425;50.316;8.114;2023-03-16T08:42:00;993;;;2.2;84.6
12722;BME280;6425;50.316;8.114;2023-03-16T08:45:00;993;;;2.6;83.9
12722;BME280;6425;50.316;8.114;2023-03-16T08:48:00;993;;;2.1;84.9
12722;BME280;6425;50.316;8.114;2023-03-16T08:51:00;993;;;1.8;85.9
12722;BME280;6425;50.316;8.114;2023-03-16T08:54:00;993;;;2.1;86
12722;BME280;6425;50.316;8.114;2023-03-16T08:57:00;993;;;3.2;84.1
12722;BME280;6425;50.316;8.114;2023-03-16T09:00:00;992;;;3.8;80.3
12722;BME280;6425;50.316;8.114;2023-03-16T09:03:00;992;;;4.6;76.7
12722;BME280;6425;50.316;8.114;2023-03-16T09:06:00;992;;;4.8;74.4
12722;BME280;6425;50.316;8.114;2023-03-16T09:09:00;992;;;3.9;77.4
12722;BME280;6425;50.316;8.114;2023-03-16T09:12:00;992;;;4.8;76
12722;BME280;6425;50.316;8.114;2023-03-16T09:15:00;992;;;5.2;74
12722;BME280;6425;50.316;8.114;2023-03-16T09:18:00;992;;;4.5;74.6
12722;BME280;6425;50.316;8.114;2023-03-16T09:21:00;992;;;5;76
12722;BME280;6425;50.316;8.114;2023-03-16T09:24:00;992;;;5.8;71.2
12722;BME280;6425;50.316;8.114;2023-03-16T09:27:00;992;;;5.8;70
12722;BME280;6425;50.316;8.114;2023-03-16T09:30:00;992;;;5.4;70.8
12722;BME280;6425;50.316;8.114;2023-03-16T09:33:00;992;;;5.3;72.6
12722;BME280;6425;50.316;8.114;2023-03-16T09:36:00;992;;;6;72.8
12722;BME280;6425;50.316;8.114;2023-03-16T09:39:00;992;;;5.9;70
12722;BME280;6425;50.316;8.114;2023-03-16T09:42:01;992;;;5.3;70
12722;BME280;6425;50.316;8.114;2023-03-16T09:45:02;992;;;6.2;68.7
12722;BME280;6425;50.316;8.114;2023-03-16T09:48:00;992;;;6.4;67.5
12722;BME280;6425;50.316;8.114;2023-03-16T09:51:00;992;;;5.5;67.5
12722;BME280;6425;50.316;8.114;2023-03-16T09:54:00;992;;;5.7;67
12722;BME280;6425;50.316;8.114;2023-03-16T09:57:00;992;;;6.4;66
12722;BME280;6425;50.316;8.114;2023-03-16T10:00:05;992;;;7;63.3
12722;BME280;6425;50.316;8.114;2023-03-16T10:03:04;992;;;8.2;60.9
12722;BME280;6425;50.316;8.114;2023-03-16T10:06:00;992;;;9.4;58.1
12722;BME280;6425;50.316;8.114;2023-03-16T10:09:02;992;;;9.2;56.1
12722;BME280;6425;50.316;8.114;2023-03-16T10:12:00;992;;;8.6;54.8
12722;BME280;6425;50.316;8.114;2023-03-16T10:15:02;992;;;8.1;56.8
12722;BME280;6425;50.316;8.114;2023-03-16T10:18:01;992;;;8.3;58
12722;BME280;6425;50.316;8.114;2023-03-16T10:21:00;992;;;8.5;56.7
12722;BME280;6425;50.316;8.114;2023-03-16T10:24:00;992;;;8.8;54.8
12722;BME280;6425;50.316;8.114;2023-03-16T10:27:00;992;;;8.4;55.7
12722;BME280;6425;50.316;8.114;2023-03-16T10:30:00;992;;;7.9;56.5
12722;BME280;6425;50.316;8.114;2023-03-16T10:33:00;992;;;8;56.8
12722;BME280;6425;50.316;8.114;2023-03-16T10:36:01;992;;;8.3;56.3
12722;BME280;6425;50.316;8.114;2023-03-16T10:39:00;992;;;8.3;55.3
12722;BME280;6425;50.316;8.114;2023-03-16T10:42:00;992;;;8.5;55
12722;BME280;6425;50.316;8.114;2023-03-16T10:45:00;992;;;8.9;54.2
12722;BME280;6425;50.316;8.114;2023-03-16T10:48:07;992;;;9.1;53.3
12722;BME280;6425;50.316;8.114;2023-03-16T10:51:00;992;;;9.1;53.4
12722;BME280;6425;50.316;8.114;2023-03-16T10:54:03;992;;;9.6;53.4
12722;BME280;6425;50.316;8.114;2023-03-16T10:57:00;992;;;9.5;52.8
12722;BME280;6425;50.316;8.114;2023-03-16T11:00:03;992;;;9.4;52.6
12722;BME280;6425;50.316;8.114;2023-03-16T11:03:00;992;;;10;51.8
12722;BME280;6425;50.316;8.114;2023-03-16T11:06:00;992;;;10.7;50.2
12722;BME280;6425;50.316;8.114;2023-03-16T11:09:02;992;;;10.1;50.7
12722;BME280;6425;50.316;8.114;2023-03-16T11:12:00;992;;;10;51.4
12722;BME280;6425;50.316;8.114;2023-03-16T11:15:00;992;;;10;51.2
12722;BME280;6425;50.316;8.114;2023-03-16T11:18:00;992;;;9.9;51.3
12722;BME280;6425;50.316;8.114;2023-03-16T11:21:01;992;;;9.9;52.1
12722;BME280;6425;50.316;8.114;2023-03-16T11:24:00;992;;;9.8;52.9
12722;BME280;6425;50.316;8.114;2023-03-16T11:27:00;992;;;10;53.4
12722;BME280;6425;50.316;8.114;2023-03-16T11:30:03;992;;;10.1;51.1
12722;BME280;6425;50.316;8.114;2023-03-16T11:33:00;992;;;9.3;54.2
12722;BME280;6425;50.316;8.114;2023-03-16T11:36:01;992;;;9.5;53.7
12722;BME280;6425;50.316;8.114;2023-03-16T11:39:02;992;;;9.9;53.3
12722;BME280;6425;50.316;8.114;2023-03-16T11:42:08;992;;;9.2;53.8
12722;BME280;6425;50.316;8.114;2023-03-16T11:45:02;991;;;9.3;53.8
12722;BME280;6425;50.316;8.114;2023-03-16T11:48:03;991;;;9.5;53.9
12722;BME280;6425;50.316;8.114;2023-03-16T11:51:01;991;;;10.4;53.1
12722;BME280;6425;50.316;8.114;2023-03-16T11:54:02;991;;;10;51.9
12722;BME280;6425;50.316;8.114;2023-03-16T11:57:00;991;;;9.4;53.2
12722;BME280;6425;50.316;8.114;2023-03-16T12:00:10;991;;;9.1;53.8
12722;BME280;6425;50.316;8.114;2023-03-16T12:03:05;991;;;9;53.7
12722;BME280;6425;50.316;8.114;2023-03-16T12:06:00;991;;;9.2;53.5
12722;BME280;6425;50.316;8.114;2023-03-16T12:09:08;991;;;9.1;53.3
12722;BME280;6425;50.316;8.114;2023-03-16T12:12:01;991;;;9;53.9
12722;BME280;6425;50.316;8.114;2023-03-16T12:15:04;991;;;9.4;53.4
12722;BME280;6425;50.316;8.114;2023-03-16T12:18:01;991;;;9.5;52.9
12722;BME280;6425;50.316;8.114;2023-03-16T12:21:00;991;;;9.3;52.5
12722;BME280;6425;50.316;8.114;2023-03-16T12:24:01;991;;;9.5;53.7
12722;BME280;6425;50.316;8.114;2023-03-16T12:27:00;991;;;9.5;52.3
12722;BME280;6425;50.316;8.114;2023-03-16T12:30:01;991;;;9.3;53.5
12722;BME280;6425;50.316;8.114;2023-03-16T12:33:00;991;;;9.2;53.1
12722;BME280;6425;50.316;8.114;2023-03-16T12:36:01;991;;;9.1;52.7
12722;BME280;6425;50.316;8.114;2023-03-16T12:39:00;991;;;9.5;53.4
12722;BME280;6425;50.316;8.114;2023-03-16T12:42:02;991;;;9.6;53.1
12722;BME280;6425;50.316;8.114;2023-03-16T12:45:00;991;;;9.9;52.5
12722;BME280;6425;50.316;8.114;2023-03-16T12:48:02;991;;;10.3;53.6
12722;BME280;6425;50.316;8.114;2023-03-16T12:51:00;991;;;10.6;50.4
12722;BME280;6425;50.316;8.114;2023-03-16T12:54:00;991;;;10.2;49.4
12722;BME280;6425;50.316;8.114;2023-03-16T12:57:00;991;;;10.2;51.3
12722;BME280;6425;50.316;8.114;2023-03-16T13:00:00;991;;;10.8;51.1
12722;BME280;6425;50.316;8.114;2023-03-16T13:03:00;990;;;10.6;48.8
12722;BME280;6425;50.316;8.114;2023-03-16T13:06:00;990;;;10.7;50.5
12722;BME280;6425;50.316;8.114;2023-03-16T13:09:00;990;;;10.8;48.5
12722;BME280;6425;50.316;8.114;2023-03-16T13:12:00;990;;;10.5;49.4
12722;BME280;6425;50.316;8.114;2023-03-16T13:15:00;990;;;10.5;48.4
12722;BME280;6425;50.316;8.114;2023-03-16T13:18:02;990;;;10.7;47.3
12722;BME280;6425;50.316;8.114;2023-03-16T13:21:00;990;;;10.6;47.5
12722;BME280;6425;50.316;8.114;2023-03-16T13:24:10;990;;;10.6;47.5
12722;BME280;6425;50.316;8.114;2023-03-16T13:27:00;990;;;10.5;48.5
12722;BME280;6425;50.316;8.114;2023-03-16T13:30:00;990;;;10.5;47.2
12722;BME280;6425;50.316;8.114;2023-03-16T13:33:00;990;;;10.8;46.6
12722;BME280;6425;50.316;8.114;2023-03-16T13:36:00;990;;;10.9;46.9
12722;BME280;6425;50.316;8.114;2023-03-16T13:39:02;990;;;11.1;47
12722;BME280;6425;50.316;8.114;2023-03-16T13:42:01;990;;;11.2;46.3
12722;BME280;6425;50.316;8.114;2023-03-16T13:45:04;990;;;10.9;46.9
12722;BME280;6425;50.316;8.114;2023-03-16T13:48:00;990;;;10.6;47.7
12722;BME280;6425;50.316;8.114;2023-03-16T13:51:00;990;;;10.7;48.2
12722;BME280;6425;50.316;8.114;2023-03-16T13:54:03;990;;;10.6;48
12722;BME280;6425;50.316;8.114;2023-03-16T13:57:00;990;;;10.3;50.2
12722;BME280;6425;50.316;8.114;2023-03-16T14:00:00;990;;;10.5;50.4
12722;BME280;6425;50.316;8.114;2023-03-16T14:03:04;990;;;10.7;47.5
12722;BME280;6425;50.316;8.114;2023-03-16T14:06:00;990;;;10.9;47.6
12722;BME280;6425;50.316;8.114;2023-03-16T14:09:01;990;;;10.9;46.8
12722;BME280;6425;50.316;8.114;2023-03-16T14:12:00;990;;;10.5;47.2
12722;BME280;6425;50.316;8.114;2023-03-16T14:15:03;990;;;10.5;46.8
12722;BME280;6425;50.316;8.114;2023-03-16T14:18:04;990;;;10.3;46.4
12722;BME280;6425;50.316;8.114;2023-03-16T14:21:03;990;;;10.3;46.1
12722;BME280;6425;50.316;8.114;2023-03-16T14:24:00;990;;;10.4;47.6
12722;BME280;6425;50.316;8.114;2023-03-16T14:27:08;990;;;10.6;47
12722;BME280;6425;50.316;8.114;2023-03-16T14:30:00;989;;;10.6;47.7
12722;BME280;6425;50.316;8.114;2023-03-16T14:33:00;989;;;10.7;47.4
12722;BME280;6425;50.316;8.114;2023-03-16T14:36:06;989;;;10.5;47
12722;BME280;6425;50.316;8.114;2023-03-16T14:39:08;989;;;10.3;46.7
12722;BME280;6425;50.316;8.114;2023-03-16T14:42:01;989;;;10.7;48.1
12722;BME280;6425;50.316;8.114;2023-03-16T14:45:00;989;;;11.2;46.7
12722;BME280;6425;50.316;8.114;2023-03-16T14:48:01;989;;;11.4;47.7
12722;BME280;6425;50.316;8.114;2023-03-16T14:51:00;989;;;11.6;44.8
12722;BME280;6425;50.316;8.114;2023-03-16T14:54:00;989;;;11.2;44.8
12722;BME280;6425;50.316;8.114;2023-03-16T14:57:00;989;;;11.1;45.8
12722;BME280;6425;50.316;8.114;2023-03-16T15:00:00;989;;;11.4;46.4
12722;BME280;6425;50.316;8.114;2023-03-16T15:03:01;989;;;11.3;45.1
12722;BME280;6425;50.316;8.114;2023-03-16T15:06:00;989;;;11.3;45.4
12722;BME280;6425;50.316;8.114;2023-03-16T15:09:00;989;;;11;46.8
12722;BME280;6425;50.316;8.114;2023-03-16T15:12:00;989;;;10.9;45.5
12722;BME280;6425;50.316;8.114;2023-03-16T15:15:00;989;;;10.8;45.2
12722;BME280;6425;50.316;8.114;2023-03-16T15:18:00;989;;;10.7;44.7
12722;BME280;6425;50.316;8.114;2023-03-16T15:21:00;989;;;11;44.4
12722;BME280;6425;50.316;8.114;2023-03-16T15:24:00;989;;;11.2;43.5
12722;BME280;6425;50.316;8.114;2023-03-16T15:27:00;989;;;11.2;43.3
12722;BME280;6425;50.316;8.114;2023-03-16T15:30:00;989;;;11.5;44.7
12722;BME280;6425;50.316;8.114;2023-03-16T15:33:00;989;;;11.6;42.9
12722;BME280;6425;50.316;8.114;2023-03-16T15:36:00;989;;;12.1;43.3
12722;BME280;6425;50.316;8.114;2023-03-16T15:39:00;989;;;12.3;42.4
12722;BME280;6425;50.316;8.114;2023-03-16T15:42:00;989;;;12.5;41.9
12722;BME280;6425;50.316;8.114;2023-03-16T15:45:00;989;;;12;42.6
12722;BME280;6425;50.316;8.114;2023-03-16T15:48:00;989;;;11.6;43.2
12722;BME280;6425;50.316;8.114;2023-03-16T15:51:00;989;;;11.2;44.5
12722;BME280;6425;50.316;8.114;2023-03-16T15:54:00;989;;;10.9;45.9
12722;BME280;6425;50.316;8.114;2023-03-16T15:57:00;989;;;11.1;45.8
12722;BME280;6425;50.316;8.114;2023-03-16T16:00:00;989;;;10.7;46.4
12722;BME280;6425;50.316;8.114;2023-03-16T16:03:00;989;;;10.6;44.9
12722;BME280;6425;50.316;8.114;2023-03-16T16:06:00;988;;;10.7;45.1
12722;BME280;6425;50.316;8.114;2023-03-16T16:09:00;989;;;10.7;44.8
12722;BME280;6425;50.316;8.114;2023-03-16T16:12:00;989;;;10.6;46.3
12722;BME280;6425;50.316;8.114;2023-03-16T16:15:00;989;;;10.3;46.1
12722;BME280;6425;50.316;8.114;2023-03-16T16:18:00;988;;;10.3;46.3
12722;BME280;6425;50.316;8.114;2023-03-16T16:21:00;988;;;10.3;45.9
12722;BME280;6425;50.316;8.114;2023-03-16T16:24:00;988;;;10.6;45.8
12722;BME280;6425;50.316;8.114;2023-03-16T16:27:00;988;;;10.6;47.1
12722;BME280;6425;50.316;8.114;2023-03-16T16:30:00;988;;;10.6;46.1
12722;BME280;6425;50.316;8.114;2023-03-16T16:33:00;988;;;10.6;45.8
12722;BME280;6425;50.316;8.114;2023-03-16T16:36:00;988;;;10.9;46.2
12722;BME280;6425;50.316;8.114;2023-03-16T16:39:00;989;;;11;46
12722;BME280;6425;50.316;8.114;2023-03-16T16:42:00;989;;;10.9;45.1
12722;BME280;6425;50.316;8.114;2023-03-16T16:45:00;988;;;10.4;45.6
12722;BME280;6425;50.316;8.114;2023-03-16T16:48:00;989;;;10.2;47.1
12722;BME280;6425;50.316;8.114;2023-03-16T16:51:00;989;;;10.1;47.3
12722;BME280;6425;50.316;8.114;2023-03-16T16:54:00;989;;;10.1;47.2
12722;BME280;6425;50.316;8.114;2023-03-16T16:57:00;988;;;10;47.7
12722;BME280;6425;50.316;8.114;2023-03-16T17:00:00;988;;;9.9;47.6
12722;BME280;6425;50.316;8.114;2023-03-16T17:03:00;988;;;9.9;48.6
12722;BME280;6425;50.316;8.114;2023-03-16T17:06:00;988;;;9.6;49.1
12722;BME280;6425;50.316;8.114;2023-03-16T17:09:00;988;;;9.6;49.8
12722;BME280;6425;50.316;8.114;2023-03-16T17:12:00;988;;;9.4;49.9
12722;BME280;6425;50.316;8.114;2023-03-16T17:15:00;988;;;9.4;50.6
12722;BME280;6425;50.316;8.114;2023-03-16T17:18:00;988;;;9.4;50.8
12722;BME280;6425;50.316;8.114;2023-03-16T17:21:00;988;;;9.1;52.2
12722;BME280;6425;50.316;8.114;2023-03-16T17:24:00;988;;;9;57.1
12722;BME280;6425;50.316;8.114;2023-03-16T17:27:00;988;;;8.9;59.1
12722;BME280;6425;50.316;8.114;2023-03-16T17:30:00;988;;;9;60.2
12722;BME280;6425;50.316;8.114;2023-03-16T17:33:01;988;;;8.9;61.5
12722;BME280;6425;50.316;8.114;2023-03-16T17:36:00;988;;;8.6;62.6
12722;BME280;6425;50.316;8.114;2023-03-16T17:39:00;988;;;8.3;63.7
12722;BME280;6425;50.316;8.114;2023-03-16T17:42:00;988;;;7.9;65.2
12722;BME280;6425;50.316;8.114;2023-03-16T17:45:00;988;;;7.8;66.1
12722;BME280;6425;50.316;8.114;2023-03-16T17:48:00;988;;;8.3;64.9
12722;BME280;6425;50.316;8.114;2023-03-16T17:51:00;988;;;8.1;64.5
12722;BME280;6425;50.316;8.114;2023-03-16T17:54:00;988;;;7.4;66.8
12722;BME280;6425;50.316;8.114;2023-03-16T17:57:00;988;;;7.2;67.6